sensor_id;sensor_type;location;lat;lon;timestamp;P1;durP1;ratioP1;P2;durP2;ratioP2
16792;SDS011;8513;42.662;23.350;2023-03-11T00:00:42;10.77;;;9.63;;
16792;SDS011;8513;42.662;23.350;2023-03-11T00:03:10;12.10;;;10.82;;
16792;SDS011;8513;42.662;23.350;2023-03-11T00:05:38;11.30;;;10.20;;
16792;SDS011;8513;42.662;23.350;2023-03-11T00:08:05;9.45;;;7.90;;
16792;SDS011;8513;42.662;23.350;2023-03-11T00:10:34;7.32;;;6.63;;
16792;SDS011;8513;42.662;23.350;2023-03-11T00:13:02;5.22;;;4.75;;
16792;SDS011;8513;42.662;23.350;2023-03-11T00:15:29;3.30;;;3.00;;
16792;SDS011;8513;42.662;23.350;2023-03-11T00:17:55;3.10;;;2.80;;
16792;SDS011;8513;42.662;23.350;2023-03-11T00:20:22;2.28;;;1.77;;
16792;SDS011;8513;42.662;23.350;2023-03-11T00:22:50;2.05;;;1.80;;
16792;SDS011;8513;42.662;23.350;2023-03-11T00:25:16;2.50;;;1.35;;
16792;SDS011;8513;42.662;23.350;2023-03-11T00:27:43;1.58;;;1.40;;
16792;SDS011;8513;42.662;23.350;2023-03-11T00:30:09;1.63;;;1.40;;
16792;SDS011;8513;42.662;23.350;2023-03-11T00:32:36;1.10;;;1.00;;
16792;SDS011;8513;42.662;23.350;2023-03-11T00:35:02;3.08;;;1.30;;
16792;SDS011;8513;42.662;23.350;2023-03-11T00:37:27;2.83;;;1.38;;
16792;SDS011;8513;42.662;23.350;2023-03-11T00:39:53;1.75;;;1.30;;
16792;SDS011;8513;42.662;23.350;2023-03-11T00:42:18;2.42;;;1.05;;
16792;SDS011;8513;42.662;23.350;2023-03-11T00:44:43;1.88;;;1.30;;
16792;SDS011;8513;42.662;23.350;2023-03-11T00:47:10;1.60;;;1.10;;
16792;SDS011;8513;42.662;23.350;2023-03-11T00:49:36;1.30;;;0.90;;
16792;SDS011;8513;42.662;23.350;2023-03-11T00:52:01;3.13;;;1.02;;
16792;SDS011;8513;42.662;23.350;2023-03-11T00:54:28;1.58;;;1.00;;
16792;SDS011;8513;42.662;23.350;2023-03-11T00:56:53;0.73;;;0.73;;
16792;SDS011;8513;42.662;23.350;2023-03-11T00:59:18;1.88;;;1.00;;
16792;SDS011;8513;42.662;23.350;2023-03-11T01:01:44;1.80;;;1.35;;
16792;SDS011;8513;42.662;23.350;2023-03-11T01:04:09;1.00;;;0.90;;
16792;SDS011;8513;42.662;23.350;2023-03-11T01:06:35;1.42;;;0.90;;
16792;SDS011;8513;42.662;23.350;2023-03-11T01:09:00;1.20;;;0.90;;
16792;SDS011;8513;42.662;23.350;2023-03-11T01:11:26;1.10;;;1.00;;
16792;SDS011;8513;42.662;23.350;2023-03-11T01:13:51;2.60;;;1.20;;
16792;SDS011;8513;42.662;23.350;2023-03-11T01:16:17;1.45;;;0.95;;
16792;SDS011;8513;42.662;23.350;2023-03-11T01:18:42;1.00;;;0.90;;
16792;SDS011;8513;42.662;23.350;2023-03-11T01:21:07;2.63;;;1.00;;
16792;SDS011;8513;42.662;23.350;2023-03-11T01:23:33;1.42;;;1.00;;
16792;SDS011;8513;42.662;23.350;2023-03-11T01:25:58;1.27;;;0.90;;
16792;SDS011;8513;42.662;23.350;2023-03-11T01:28:24;4.57;;;1.33;;
16792;SDS011;8513;42.662;23.350;2023-03-11T01:30:50;3.42;;;1.08;;
16792;SDS011;8513;42.662;23.350;2023-03-11T01:33:17;1.48;;;1.08;;
16792;SDS011;8513;42.662;23.350;2023-03-11T01:35:44;1.10;;;1.00;;
16792;SDS011;8513;42.662;23.350;2023-03-11T01:38:11;1.23;;;0.90;;
16792;SDS011;8513;42.662;23.350;2023-03-11T01:40:38;2.15;;;0.80;;
16792;SDS011;8513;42.662;23.350;2023-03-11T01:43:33;1.30;;;0.95;;
16792;SDS011;8513;42.662;23.350;2023-03-11T01:48:32;1.33;;;0.90;;
16792;SDS011;8513;42.662;23.350;2023-03-11T01:50:57;1.63;;;0.88;;
16792;SDS011;8513;42.662;23.350;2023-03-11T01:53:23;2.45;;;1.08;;
16792;SDS011;8513;42.662;23.350;2023-03-11T01:55:49;2.13;;;1.20;;
16792;SDS011;8513;42.662;23.350;2023-03-11T01:58:17;1.05;;;0.80;;
16792;SDS011;8513;42.662;23.350;2023-03-11T02:00:46;1.05;;;0.65;;
16792;SDS011;8513;42.662;23.350;2023-03-11T02:03:31;0.90;;;0.85;;
16792;SDS011;8513;42.662;23.350;2023-03-11T02:05:59;3.30;;;1.30;;
16792;SDS011;8513;42.662;23.350;2023-03-11T02:08:26;2.50;;;1.33;;
16792;SDS011;8513;42.662;23.350;2023-03-11T02:10:54;1.92;;;1.60;;
16792;SDS011;8513;42.662;23.350;2023-03-11T02:13:21;1.95;;;1.75;;
16792;SDS011;8513;42.662;23.350;2023-03-11T02:15:46;2.30;;;2.10;;
16792;SDS011;8513;42.662;23.350;2023-03-11T02:18:12;2.58;;;1.92;;
16792;SDS011;8513;42.662;23.350;2023-03-11T02:23:04;2.90;;;1.95;;
16792;SDS011;8513;42.662;23.350;2023-03-11T02:25:34;4.00;;;2.00;;
16792;SDS011;8513;42.662;23.350;2023-03-11T02:28:09;2.60;;;2.40;;
16792;SDS011;8513;42.662;23.350;2023-03-11T02:30:38;3.65;;;2.47;;
16792;SDS011;8513;42.662;23.350;2023-03-11T02:33:05;3.10;;;2.67;;
16792;SDS011;8513;42.662;23.350;2023-03-11T02:35:32;3.38;;;2.83;;
16792;SDS011;8513;42.662;23.350;2023-03-11T02:37:58;3.85;;;3.30;;
16792;SDS011;8513;42.662;23.350;2023-03-11T02:42:50;4.22;;;3.22;;
16792;SDS011;8513;42.662;23.350;2023-03-11T02:45:22;4.00;;;2.80;;
16792;SDS011;8513;42.662;23.350;2023-03-11T02:47:50;3.35;;;2.63;;
16792;SDS011;8513;42.662;23.350;2023-03-11T02:50:17;4.15;;;3.75;;
16792;SDS011;8513;42.662;23.350;2023-03-11T02:52:43;4.32;;;3.30;;
16792;SDS011;8513;42.662;23.350;2023-03-11T02:55:09;3.22;;;3.03;;
16792;SDS011;8513;42.662;23.350;2023-03-11T02:57:40;4.00;;;3.30;;
16792;SDS011;8513;42.662;23.350;2023-03-11T03:00:06;4.07;;;3.65;;
16792;SDS011;8513;42.662;23.350;2023-03-11T03:02:39;3.85;;;3.55;;
16792;SDS011;8513;42.662;23.350;2023-03-11T03:05:05;5.15;;;4.18;;
16792;SDS011;8513;42.662;23.350;2023-03-11T03:07:32;5.10;;;4.60;;
16792;SDS011;8513;42.662;23.350;2023-03-11T03:09:58;5.27;;;4.77;;
16792;SDS011;8513;42.662;23.350;2023-03-11T03:12:23;6.50;;;5.90;;
16792;SDS011;8513;42.662;23.350;2023-03-11T03:14:48;6.40;;;5.80;;
16792;SDS011;8513;42.662;23.350;2023-03-11T03:17:14;5.57;;;5.18;;
16792;SDS011;8513;42.662;23.350;2023-03-11T03:19:39;5.90;;;5.40;;
16792;SDS011;8513;42.662;23.350;2023-03-11T03:22:05;6.43;;;5.82;;
16792;SDS011;8513;42.662;23.350;2023-03-11T03:24:30;6.72;;;6.22;;
16792;SDS011;8513;42.662;23.350;2023-03-11T03:26:56;6.07;;;5.57;;
16792;SDS011;8513;42.662;23.350;2023-03-11T03:29:21;5.80;;;5.30;;
16792;SDS011;8513;42.662;23.350;2023-03-11T03:31:47;5.27;;;4.87;;
16792;SDS011;8513;42.662;23.350;2023-03-11T03:34:12;5.28;;;4.20;;
16792;SDS011;8513;42.662;23.350;2023-03-11T03:36:38;4.72;;;4.32;;
16792;SDS011;8513;42.662;23.350;2023-03-11T03:39:04;5.45;;;4.13;;
16792;SDS011;8513;42.662;23.350;2023-03-11T03:41:29;4.88;;;4.40;;
16792;SDS011;8513;42.662;23.350;2023-03-11T03:43:55;4.83;;;3.80;;
16792;SDS011;8513;42.662;23.350;2023-03-11T03:46:20;4.10;;;3.80;;
16792;SDS011;8513;42.662;23.350;2023-03-11T03:48:46;4.50;;;3.45;;
16792;SDS011;8513;42.662;23.350;2023-03-11T03:51:12;4.07;;;3.75;;
16792;SDS011;8513;42.662;23.350;2023-03-11T03:53:38;3.42;;;3.15;;
16792;SDS011;8513;42.662;23.350;2023-03-11T03:56:05;3.67;;;2.90;;
16792;SDS011;8513;42.662;23.350;2023-03-11T03:58:35;3.43;;;3.13;;
16792;SDS011;8513;42.662;23.350;2023-03-11T04:01:01;3.78;;;3.28;;
16792;SDS011;8513;42.662;23.350;2023-03-11T04:03:28;3.58;;;3.10;;
16792;SDS011;8513;42.662;23.350;2023-03-11T04:05:53;3.70;;;3.40;;
16792;SDS011;8513;42.662;23.350;2023-03-11T04:08:19;2.85;;;2.65;;
16792;SDS011;8513;42.662;23.350;2023-03-11T04:10:44;1.42;;;1.30;;
16792;SDS011;8513;42.662;23.350;2023-03-11T04:13:20;1.80;;;1.65;;
16792;SDS011;8513;42.662;23.350;2023-03-11T04:15:45;1.17;;;1.15;;
16792;SDS011;8513;42.662;23.350;2023-03-11T04:18:10;2.17;;;1.98;;
16792;SDS011;8513;42.662;23.350;2023-03-11T04:20:37;0.90;;;0.90;;
16792;SDS011;8513;42.662;23.350;2023-03-11T04:23:03;0.68;;;0.68;;
16792;SDS011;8513;42.662;23.350;2023-03-11T04:25:28;0.60;;;0.60;;
16792;SDS011;8513;42.662;23.350;2023-03-11T04:27:53;0.60;;;0.60;;
16792;SDS011;8513;42.662;23.350;2023-03-11T04:30:19;0.50;;;0.50;;
16792;SDS011;8513;42.662;23.350;2023-03-11T04:32:44;0.60;;;0.60;;
16792;SDS011;8513;42.662;23.350;2023-03-11T04:35:10;1.23;;;0.90;;
16792;SDS011;8513;42.662;23.350;2023-03-11T04:37:35;1.50;;;1.40;;
16792;SDS011;8513;42.662;23.350;2023-03-11T04:40:01;2.47;;;2.00;;
16792;SDS011;8513;42.662;23.350;2023-03-11T04:42:27;2.97;;;1.92;;
16792;SDS011;8513;42.662;23.350;2023-03-11T04:44:53;0.90;;;0.65;;
16792;SDS011;8513;42.662;23.350;2023-03-11T04:47:18;1.60;;;0.90;;
16792;SDS011;8513;42.662;23.350;2023-03-11T04:49:44;0.68;;;0.50;;
16792;SDS011;8513;42.662;23.350;2023-03-11T04:52:09;0.90;;;0.65;;
16792;SDS011;8513;42.662;23.350;2023-03-11T04:54:35;0.75;;;0.68;;
16792;SDS011;8513;42.662;23.350;2023-03-11T04:57:00;0.55;;;0.55;;
16792;SDS011;8513;42.662;23.350;2023-03-11T04:59:25;0.40;;;0.40;;
16792;SDS011;8513;42.662;23.350;2023-03-11T05:01:51;0.40;;;0.40;;
16792;SDS011;8513;42.662;23.350;2023-03-11T05:04:16;0.63;;;0.40;;
16792;SDS011;8513;42.662;23.350;2023-03-11T05:06:42;0.50;;;0.50;;
16792;SDS011;8513;42.662;23.350;2023-03-11T05:09:07;1.20;;;0.50;;
16792;SDS011;8513;42.662;23.350;2023-03-11T05:11:33;0.45;;;0.45;;
16792;SDS011;8513;42.662;23.350;2023-03-11T05:13:58;0.40;;;0.40;;
16792;SDS011;8513;42.662;23.350;2023-03-11T05:16:23;1.40;;;0.60;;
16792;SDS011;8513;42.662;23.350;2023-03-11T05:18:49;0.40;;;0.40;;
16792;SDS011;8513;42.662;23.350;2023-03-11T05:21:14;1.02;;;0.52;;
16792;SDS011;8513;42.662;23.350;2023-03-11T05:23:40;1.23;;;0.60;;
16792;SDS011;8513;42.662;23.350;2023-03-11T05:26:05;0.50;;;0.40;;
16792;SDS011;8513;42.662;23.350;2023-03-11T05:28:31;0.40;;;0.40;;
16792;SDS011;8513;42.662;23.350;2023-03-11T05:30:56;0.45;;;0.40;;
16792;SDS011;8513;42.662;23.350;2023-03-11T05:33:22;0.40;;;0.40;;
16792;SDS011;8513;42.662;23.350;2023-03-11T05:35:47;0.50;;;0.50;;
16792;SDS011;8513;42.662;23.350;2023-03-11T05:38:15;0.50;;;0.50;;
16792;SDS011;8513;42.662;23.350;2023-03-11T05:40:41;0.68;;;0.68;;
16792;SDS011;8513;42.662;23.350;2023-03-11T05:43:06;0.38;;;0.35;;
16792;SDS011;8513;42.662;23.350;2023-03-11T05:45:31;0.50;;;0.50;;
16792;SDS011;8513;42.662;23.350;2023-03-11T05:47:57;0.60;;;0.60;;
16792;SDS011;8513;42.662;23.350;2023-03-11T05:50:22;0.40;;;0.40;;
16792;SDS011;8513;42.662;23.350;2023-03-11T05:52:48;0.82;;;0.70;;
16792;SDS011;8513;42.662;23.350;2023-03-11T05:55:13;3.90;;;0.73;;
16792;SDS011;8513;42.662;23.350;2023-03-11T05:57:39;0.50;;;0.50;;
16792;SDS011;8513;42.662;23.350;2023-03-11T06:00:05;0.55;;;0.55;;
16792;SDS011;8513;42.662;23.350;2023-03-11T06:02:37;0.68;;;0.50;;
16792;SDS011;8513;42.662;23.350;2023-03-11T06:05:06;1.65;;;0.88;;
16792;SDS011;8513;42.662;23.350;2023-03-11T06:07:33;0.85;;;0.45;;
16792;SDS011;8513;42.662;23.350;2023-03-11T06:09:59;0.90;;;0.80;;
16792;SDS011;8513;42.662;23.350;2023-03-11T06:12:25;0.52;;;0.52;;
16792;SDS011;8513;42.662;23.350;2023-03-11T06:14:52;1.55;;;0.77;;
16792;SDS011;8513;42.662;23.350;2023-03-11T06:17:17;0.52;;;0.52;;
16792;SDS011;8513;42.662;23.350;2023-03-11T06:19:43;0.50;;;0.50;;
16792;SDS011;8513;42.662;23.350;2023-03-11T06:22:08;0.82;;;0.52;;
16792;SDS011;8513;42.662;23.350;2023-03-11T06:24:34;0.63;;;0.60;;
16792;SDS011;8513;42.662;23.350;2023-03-11T06:26:59;0.60;;;0.60;;
16792;SDS011;8513;42.662;23.350;2023-03-11T06:29:24;0.50;;;0.50;;
16792;SDS011;8513;42.662;23.350;2023-03-11T06:31:50;1.30;;;0.85;;
16792;SDS011;8513;42.662;23.350;2023-03-11T06:34:16;0.55;;;0.55;;
16792;SDS011;8513;42.662;23.350;2023-03-11T06:36:41;0.95;;;0.60;;
16792;SDS011;8513;42.662;23.350;2023-03-11T06:39:07;0.98;;;0.40;;
16792;SDS011;8513;42.662;23.350;2023-03-11T06:41:33;1.42;;;0.68;;
16792;SDS011;8513;42.662;23.350;2023-03-11T06:43:59;0.40;;;0.40;;
16792;SDS011;8513;42.662;23.350;2023-03-11T06:46:24;0.70;;;0.70;;
16792;SDS011;8513;42.662;23.350;2023-03-11T06:48:50;1.00;;;0.60;;
16792;SDS011;8513;42.662;23.350;2023-03-11T06:51:18;1.05;;;0.60;;
16792;SDS011;8513;42.662;23.350;2023-03-11T06:53:47;2.67;;;0.70;;
16792;SDS011;8513;42.662;23.350;2023-03-11T06:56:14;0.47;;;0.43;;
16792;SDS011;8513;42.662;23.350;2023-03-11T06:58:40;1.10;;;0.40;;
16792;SDS011;8513;42.662;23.350;2023-03-11T07:01:07;0.60;;;0.50;;
16792;SDS011;8513;42.662;23.350;2023-03-11T07:03:35;2.17;;;0.80;;
16792;SDS011;8513;42.662;23.350;2023-03-11T07:06:01;0.60;;;0.57;;
16792;SDS011;8513;42.662;23.350;2023-03-11T07:08:26;0.85;;;0.82;;
16792;SDS011;8513;42.662;23.350;2023-03-11T07:10:59;0.82;;;0.70;;
16792;SDS011;8513;42.662;23.350;2023-03-11T07:13:29;1.23;;;0.60;;
16792;SDS011;8513;42.662;23.350;2023-03-11T07:16:14;1.40;;;0.70;;
16792;SDS011;8513;42.662;23.350;2023-03-11T07:18:42;1.02;;;0.65;;
16792;SDS011;8513;42.662;23.350;2023-03-11T07:21:09;1.02;;;0.65;;
16792;SDS011;8513;42.662;23.350;2023-03-11T07:23:37;0.88;;;0.68;;
16792;SDS011;8513;42.662;23.350;2023-03-11T07:26:03;1.30;;;0.70;;
16792;SDS011;8513;42.662;23.350;2023-03-11T07:28:29;1.17;;;0.88;;
16792;SDS011;8513;42.662;23.350;2023-03-11T07:30:54;0.80;;;0.80;;
16792;SDS011;8513;42.662;23.350;2023-03-11T07:33:20;1.15;;;0.80;;
16792;SDS011;8513;42.662;23.350;2023-03-11T07:35:48;1.10;;;0.60;;
16792;SDS011;8513;42.662;23.350;2023-03-11T07:38:14;0.60;;;0.60;;
16792;SDS011;8513;42.662;23.350;2023-03-11T07:40:41;1.00;;;0.90;;
16792;SDS011;8513;42.662;23.350;2023-03-11T07:43:07;2.47;;;1.17;;
16792;SDS011;8513;42.662;23.350;2023-03-11T07:45:33;1.95;;;1.08;;
16792;SDS011;8513;42.662;23.350;2023-03-11T07:47:58;1.85;;;0.80;;
16792;SDS011;8513;42.662;23.350;2023-03-11T07:50:26;2.00;;;1.00;;
16792;SDS011;8513;42.662;23.350;2023-03-11T07:52:52;1.60;;;0.90;;
16792;SDS011;8513;42.662;23.350;2023-03-11T07:55:17;1.40;;;0.93;;
16792;SDS011;8513;42.662;23.350;2023-03-11T07:57:42;2.10;;;0.85;;
16792;SDS011;8513;42.662;23.350;2023-03-11T08:00:12;2.55;;;0.90;;
16792;SDS011;8513;42.662;23.350;2023-03-11T08:02:38;3.20;;;1.20;;
16792;SDS011;8513;42.662;23.350;2023-03-11T08:05:04;1.70;;;1.00;;
16792;SDS011;8513;42.662;23.350;2023-03-11T08:07:30;1.60;;;1.17;;
16792;SDS011;8513;42.662;23.350;2023-03-11T08:09:56;1.52;;;1.27;;
16792;SDS011;8513;42.662;23.350;2023-03-11T08:12:22;3.72;;;1.70;;
16792;SDS011;8513;42.662;23.350;2023-03-11T08:14:47;3.53;;;1.63;;
16792;SDS011;8513;42.662;23.350;2023-03-11T08:17:13;1.10;;;0.93;;
16792;SDS011;8513;42.662;23.350;2023-03-11T08:19:38;2.28;;;1.00;;
16792;SDS011;8513;42.662;23.350;2023-03-11T08:22:04;5.00;;;1.33;;
16792;SDS011;8513;42.662;23.350;2023-03-11T08:24:29;2.28;;;0.85;;
16792;SDS011;8513;42.662;23.350;2023-03-11T08:26:55;3.50;;;1.15;;
16792;SDS011;8513;42.662;23.350;2023-03-11T08:29:21;2.15;;;0.90;;
16792;SDS011;8513;42.662;23.350;2023-03-11T08:31:47;1.25;;;1.00;;
16792;SDS011;8513;42.662;23.350;2023-03-11T08:34:13;1.70;;;0.82;;
16792;SDS011;8513;42.662;23.350;2023-03-11T08:36:39;1.70;;;0.80;;
16792;SDS011;8513;42.662;23.350;2023-03-11T08:39:05;0.70;;;0.70;;
16792;SDS011;8513;42.662;23.350;2023-03-11T08:41:31;1.48;;;1.05;;
16792;SDS011;8513;42.662;23.350;2023-03-11T08:43:57;1.40;;;1.00;;
16792;SDS011;8513;42.662;23.350;2023-03-11T08:46:27;1.35;;;0.85;;
16792;SDS011;8513;42.662;23.350;2023-03-11T08:48:53;1.95;;;0.80;;
16792;SDS011;8513;42.662;23.350;2023-03-11T08:51:19;1.10;;;0.90;;
16792;SDS011;8513;42.662;23.350;2023-03-11T08:53:45;2.15;;;1.15;;
16792;SDS011;8513;42.662;23.350;2023-03-11T08:56:11;1.08;;;0.90;;
16792;SDS011;8513;42.662;23.350;2023-03-11T08:58:37;2.13;;;0.90;;
16792;SDS011;8513;42.662;23.350;2023-03-11T09:01:02;2.13;;;1.13;;
16792;SDS011;8513;42.662;23.350;2023-03-11T09:03:30;1.40;;;1.00;;
16792;SDS011;8513;42.662;23.350;2023-03-11T09:06:00;1.00;;;0.80;;
16792;SDS011;8513;42.662;23.350;2023-03-11T09:08:26;3.20;;;0.85;;
16792;SDS011;8513;42.662;23.350;2023-03-11T09:10:53;0.80;;;0.77;;
16792;SDS011;8513;42.662;23.350;2023-03-11T09:13:18;4.13;;;1.65;;
16792;SDS011;8513;42.662;23.350;2023-03-11T09:16:19;1.38;;;1.00;;
16792;SDS011;8513;42.662;23.350;2023-03-11T09:18:46;6.25;;;1.20;;
16792;SDS011;8513;42.662;23.350;2023-03-11T09:21:12;1.52;;;0.90;;
16792;SDS011;8513;42.662;23.350;2023-03-11T09:23:38;1.65;;;1.02;;
16792;SDS011;8513;42.662;23.350;2023-03-11T09:26:04;1.88;;;1.00;;
16792;SDS011;8513;42.662;23.350;2023-03-11T09:28:30;0.90;;;0.80;;
16792;SDS011;8513;42.662;23.350;2023-03-11T09:30:55;1.85;;;1.13;;
16792;SDS011;8513;42.662;23.350;2023-03-11T09:33:21;1.95;;;0.80;;
16792;SDS011;8513;42.662;23.350;2023-03-11T09:35:47;1.38;;;1.02;;
16792;SDS011;8513;42.662;23.350;2023-03-11T09:38:12;2.13;;;1.10;;
16792;SDS011;8513;42.662;23.350;2023-03-11T09:40:43;4.32;;;1.08;;
16792;SDS011;8513;42.662;23.350;2023-03-11T09:43:24;3.03;;;1.10;;
16792;SDS011;8513;42.662;23.350;2023-03-11T09:46:03;2.67;;;1.10;;
16792;SDS011;8513;42.662;23.350;2023-03-11T09:51:45;3.85;;;1.20;;
16792;SDS011;8513;42.662;23.350;2023-03-11T09:54:24;3.60;;;1.17;;
16792;SDS011;8513;42.662;23.350;2023-03-11T09:56:52;2.40;;;1.30;;
16792;SDS011;8513;42.662;23.350;2023-03-11T09:59:24;2.35;;;0.90;;
16792;SDS011;8513;42.662;23.350;2023-03-11T10:01:54;1.10;;;1.00;;
16792;SDS011;8513;42.662;23.350;2023-03-11T10:04:26;3.17;;;1.17;;
16792;SDS011;8513;42.662;23.350;2023-03-11T10:06:57;2.15;;;0.85;;
16792;SDS011;8513;42.662;23.350;2023-03-11T10:09:35;2.42;;;0.80;;
16792;SDS011;8513;42.662;23.350;2023-03-11T10:20:14;2.75;;;1.08;;
16792;SDS011;8513;42.662;23.350;2023-03-11T10:23:09;1.65;;;1.25;;
16792;SDS011;8513;42.662;23.350;2023-03-11T10:28:50;3.10;;;0.98;;
16792;SDS011;8513;42.662;23.350;2023-03-11T10:31:27;1.98;;;1.00;;
16792;SDS011;8513;42.662;23.350;2023-03-11T10:34:00;1.42;;;0.90;;
16792;SDS011;8513;42.662;23.350;2023-03-11T10:36:41;1.30;;;0.82;;
16792;SDS011;8513;42.662;23.350;2023-03-11T10:39:32;1.92;;;1.10;;
16792;SDS011;8513;42.662;23.350;2023-03-11T10:42:01;2.22;;;1.15;;
16792;SDS011;8513;42.662;23.350;2023-03-11T10:44:35;1.00;;;0.80;;
16792;SDS011;8513;42.662;23.350;2023-03-11T10:47:03;3.33;;;1.13;;
16792;SDS011;8513;42.662;23.350;2023-03-11T10:49:29;1.83;;;1.08;;
16792;SDS011;8513;42.662;23.350;2023-03-11T10:51:55;1.42;;;1.00;;
16792;SDS011;8513;42.662;23.350;2023-03-11T10:54:34;3.72;;;1.23;;
16792;SDS011;8513;42.662;23.350;2023-03-11T10:57:08;1.55;;;0.90;;
16792;SDS011;8513;42.662;23.350;2023-03-11T10:59:47;1.67;;;1.02;;
16792;SDS011;8513;42.662;23.350;2023-03-11T11:02:20;0.80;;;0.80;;
16792;SDS011;8513;42.662;23.350;2023-03-11T11:05:05;2.22;;;1.08;;
16792;SDS011;8513;42.662;23.350;2023-03-11T11:07:44;2.38;;;1.05;;
16792;SDS011;8513;42.662;23.350;2023-03-11T11:17:48;2.35;;;1.33;;
16792;SDS011;8513;42.662;23.350;2023-03-11T11:20:15;1.33;;;1.23;;
16792;SDS011;8513;42.662;23.350;2023-03-11T11:22:56;3.05;;;1.42;;
16792;SDS011;8513;42.662;23.350;2023-03-11T11:28:01;2.10;;;1.30;;
16792;SDS011;8513;42.662;23.350;2023-03-11T11:30:51;3.78;;;1.50;;
16792;SDS011;8513;42.662;23.350;2023-03-11T11:33:30;2.30;;;1.63;;
16792;SDS011;8513;42.662;23.350;2023-03-11T11:35:59;2.28;;;1.20;;
16792;SDS011;8513;42.662;23.350;2023-03-11T11:38:27;1.67;;;1.10;;
16792;SDS011;8513;42.662;23.350;2023-03-11T11:40:55;2.28;;;0.90;;
16792;SDS011;8513;42.662;23.350;2023-03-11T11:46:04;0.85;;;0.80;;
16792;SDS011;8513;42.662;23.350;2023-03-11T11:48:53;2.22;;;1.20;;
16792;SDS011;8513;42.662;23.350;2023-03-11T11:51:35;3.28;;;1.20;;
16792;SDS011;8513;42.662;23.350;2023-03-11T11:54:09;1.95;;;0.93;;
16792;SDS011;8513;42.662;23.350;2023-03-11T11:56:41;3.45;;;1.17;;
16792;SDS011;8513;42.662;23.350;2023-03-11T11:59:18;3.25;;;1.25;;
16792;SDS011;8513;42.662;23.350;2023-03-11T12:15:25;1.98;;;1.02;;
16792;SDS011;8513;42.662;23.350;2023-03-11T12:17:57;2.63;;;1.20;;
16792;SDS011;8513;42.662;23.350;2023-03-11T12:20:31;4.03;;;1.10;;
16792;SDS011;8513;42.662;23.350;2023-03-11T12:26:01;2.50;;;1.08;;
16792;SDS011;8513;42.662;23.350;2023-03-11T12:28:42;2.83;;;1.45;;
16792;SDS011;8513;42.662;23.350;2023-03-11T12:31:23;1.67;;;1.30;;
16792;SDS011;8513;42.662;23.350;2023-03-11T12:34:01;2.28;;;1.25;;
16792;SDS011;8513;42.662;23.350;2023-03-11T12:36:32;1.88;;;0.90;;
16792;SDS011;8513;42.662;23.350;2023-03-11T12:39:01;2.33;;;1.10;;
16792;SDS011;8513;42.662;23.350;2023-03-11T12:44:22;4.43;;;1.42;;
16792;SDS011;8513;42.662;23.350;2023-03-11T12:49:30;4.88;;;1.67;;
16792;SDS011;8513;42.662;23.350;2023-03-11T12:52:01;1.05;;;0.85;;
16792;SDS011;8513;42.662;23.350;2023-03-11T12:54:40;2.50;;;1.00;;
16792;SDS011;8513;42.662;23.350;2023-03-11T13:10:51;1.60;;;1.00;;
16792;SDS011;8513;42.662;23.350;2023-03-11T13:15:49;2.92;;;1.10;;
16792;SDS011;8513;42.662;23.350;2023-03-11T13:18:16;1.65;;;1.05;;
16792;SDS011;8513;42.662;23.350;2023-03-11T13:20:58;2.17;;;0.90;;
16792;SDS011;8513;42.662;23.350;2023-03-11T13:23:28;2.97;;;1.00;;
16792;SDS011;8513;42.662;23.350;2023-03-11T13:26:02;2.00;;;1.10;;
16792;SDS011;8513;42.662;23.350;2023-03-11T13:39:44;3.13;;;1.23;;
16792;SDS011;8513;42.662;23.350;2023-03-11T13:42:36;2.40;;;1.17;;
16792;SDS011;8513;42.662;23.350;2023-03-11T13:45:07;2.75;;;1.40;;
16792;SDS011;8513;42.662;23.350;2023-03-11T13:47:43;2.70;;;1.35;;
16792;SDS011;8513;42.662;23.350;2023-03-11T13:50:17;1.55;;;1.20;;
16792;SDS011;8513;42.662;23.350;2023-03-11T13:52:49;1.63;;;1.25;;
16792;SDS011;8513;42.662;23.350;2023-03-11T13:58:17;2.40;;;1.45;;
16792;SDS011;8513;42.662;23.350;2023-03-11T14:00:59;2.28;;;1.77;;
16792;SDS011;8513;42.662;23.350;2023-03-11T14:03:27;2.22;;;1.60;;
16792;SDS011;8513;42.662;23.350;2023-03-11T14:06:05;3.38;;;1.70;;
16792;SDS011;8513;42.662;23.350;2023-03-11T14:08:33;1.85;;;1.20;;
16792;SDS011;8513;42.662;23.350;2023-03-11T14:13:36;2.20;;;1.67;;
16792;SDS011;8513;42.662;23.350;2023-03-11T14:16:07;3.08;;;1.77;;
16792;SDS011;8513;42.662;23.350;2023-03-11T14:21:04;4.25;;;1.88;;
16792;SDS011;8513;42.662;23.350;2023-03-11T14:23:38;3.80;;;1.77;;
16792;SDS011;8513;42.662;23.350;2023-03-11T14:26:26;2.03;;;1.80;;
16792;SDS011;8513;42.662;23.350;2023-03-11T14:28:58;2.53;;;1.80;;
16792;SDS011;8513;42.662;23.350;2023-03-11T14:31:33;1.92;;;1.40;;
16792;SDS011;8513;42.662;23.350;2023-03-11T14:34:00;2.35;;;1.75;;
16792;SDS011;8513;42.662;23.350;2023-03-11T14:41:50;3.45;;;2.17;;
16792;SDS011;8513;42.662;23.350;2023-03-11T14:44:20;2.00;;;1.80;;
16792;SDS011;8513;42.662;23.350;2023-03-11T14:46:48;2.17;;;1.42;;
16792;SDS011;8513;42.662;23.350;2023-03-11T14:49:17;2.88;;;1.60;;
16792;SDS011;8513;42.662;23.350;2023-03-11T14:51:52;2.20;;;1.65;;
16792;SDS011;8513;42.662;23.350;2023-03-11T14:54:25;3.00;;;1.80;;
16792;SDS011;8513;42.662;23.350;2023-03-11T14:57:02;2.25;;;1.73;;
16792;SDS011;8513;42.662;23.350;2023-03-11T14:59:32;3.00;;;1.70;;
16792;SDS011;8513;42.662;23.350;2023-03-11T15:02:44;2.38;;;1.73;;
16792;SDS011;8513;42.662;23.350;2023-03-11T15:05:23;3.33;;;1.85;;
16792;SDS011;8513;42.662;23.350;2023-03-11T15:07:58;3.35;;;2.40;;
16792;SDS011;8513;42.662;23.350;2023-03-11T15:10:25;2.75;;;1.92;;
16792;SDS011;8513;42.662;23.350;2023-03-11T15:12:51;2.50;;;1.48;;
16792;SDS011;8513;42.662;23.350;2023-03-11T15:15:29;2.88;;;1.52;;
16792;SDS011;8513;42.662;23.350;2023-03-11T15:17:55;4.22;;;1.75;;
16792;SDS011;8513;42.662;23.350;2023-03-11T15:20:34;2.20;;;1.70;;
16792;SDS011;8513;42.662;23.350;2023-03-11T15:23:02;1.88;;;1.50;;
16792;SDS011;8513;42.662;23.350;2023-03-11T15:25:31;1.83;;;1.38;;
16792;SDS011;8513;42.662;23.350;2023-03-11T15:27:58;2.35;;;1.42;;
16792;SDS011;8513;42.662;23.350;2023-03-11T15:30:37;3.10;;;1.30;;
16792;SDS011;8513;42.662;23.350;2023-03-11T15:33:02;3.50;;;1.35;;
16792;SDS011;8513;42.662;23.350;2023-03-11T15:35:47;2.70;;;1.80;;
16792;SDS011;8513;42.662;23.350;2023-03-11T15:40:59;2.90;;;1.63;;
16792;SDS011;8513;42.662;23.350;2023-03-11T15:43:30;1.95;;;1.73;;
16792;SDS011;8513;42.662;23.350;2023-03-11T15:46:07;2.22;;;1.80;;
16792;SDS011;8513;42.662;23.350;2023-03-11T15:48:34;2.92;;;1.83;;
16792;SDS011;8513;42.662;23.350;2023-03-11T15:51:00;3.38;;;1.88;;
16792;SDS011;8513;42.662;23.350;2023-03-11T15:53:26;4.85;;;2.30;;
16792;SDS011;8513;42.662;23.350;2023-03-11T15:55:53;3.53;;;2.60;;
16792;SDS011;8513;42.662;23.350;2023-03-11T15:58:21;4.38;;;3.20;;
16792;SDS011;8513;42.662;23.350;2023-03-11T16:00:51;3.70;;;3.40;;
16792;SDS011;8513;42.662;23.350;2023-03-11T16:03:20;6.05;;;3.42;;
16792;SDS011;8513;42.662;23.350;2023-03-11T16:05:45;5.25;;;3.55;;
16792;SDS011;8513;42.662;23.350;2023-03-11T16:08:11;3.67;;;3.33;;
16792;SDS011;8513;42.662;23.350;2023-03-11T16:10:37;5.45;;;4.07;;
16792;SDS011;8513;42.662;23.350;2023-03-11T16:13:03;4.63;;;4.22;;
16792;SDS011;8513;42.662;23.350;2023-03-11T16:15:31;4.38;;;3.97;;
16792;SDS011;8513;42.662;23.350;2023-03-11T16:17:59;4.00;;;3.60;;
16792;SDS011;8513;42.662;23.350;2023-03-11T16:20:28;4.27;;;3.87;;
16792;SDS011;8513;42.662;23.350;2023-03-11T16:22:58;3.80;;;3.50;;
16792;SDS011;8513;42.662;23.350;2023-03-11T16:25:32;3.80;;;3.50;;
16792;SDS011;8513;42.662;23.350;2023-03-11T16:28:00;3.67;;;3.00;;
16792;SDS011;8513;42.662;23.350;2023-03-11T16:30:27;3.60;;;3.30;;
16792;SDS011;8513;42.662;23.350;2023-03-11T16:32:55;3.07;;;2.80;;
16792;SDS011;8513;42.662;23.350;2023-03-11T16:35:21;4.30;;;3.10;;
16792;SDS011;8513;42.662;23.350;2023-03-11T16:37:47;3.97;;;3.50;;